Time;durP1;ratioP1;P1;durP2;ratioP2;P2;SDS_P1;SDS_P2;PMS_P1;PMS_P2;Temp;Humidity;BMP_temperature;BMP_pressure;BME280_temperature;BME280_humidity;BME280_pressure;Samples;Min_cycle;Max_cycle;Signal;HPM_P1;HPM_P2
2023/09/10 00:01:59;;;;;;;8.25;7.18;;;;;;;;;;5051921;28;20253;-84
2023/09/10 00:04:27;;;;;;;8.20;7.35;;;;;;;;;;5052011;28;20226;-84
2023/09/10 00:06:56;;;;;;;9.38;7.30;;;;;;;;;;5052178;28;20249;-85
2023/09/10 00:09:23;;;;;;;9.48;7.68;;;;;;;;;;5052186;28;20226;-84
2023/09/10 00:11:51;;;;;;;8.05;7.25;;;;;;;;;;5051650;28;20286;-84
2023/09/10 00:14:19;;;;;;;8.75;7.65;;;;;;;;;;5050767;28;20699;-84
2023/09/10 00:16:46;;;;;;;9.40;7.65;;;;;;;;;;5051749;28;20291;-85
2023/09/10 00:19:13;;;;;;;11.85;7.95;;;;;;;;;;5071736;28;20317;-84
2023/09/10 00:21:40;;;;;;;11.13;8.02;;;;;;;;;;5072033;28;20337;-85
2023/09/10 00:24:11;;;;;;;9.32;8.10;;;;;;;;;;5071117;28;20227;-84
2023/09/10 00:26:38;;;;;;;9.55;7.78;;;;;;;;;;5071510;28;20198;-84
2023/09/10 00:29:05;;;;;;;9.88;7.82;;;;;;;;;;5071240;28;20844;-84
2023/09/10 00:31:33;;;;;;;8.43;7.53;;;;;;;;;;5071507;28;20290;-85
2023/09/10 00:34:02;;;;;;;8.13;7.22;;;;;;;;;;5071823;28;20626;-84
2023/09/10 00:36:29;;;;;;;8.63;7.93;;;;;;;;;;5071320;28;20199;-85
2023/09/10 00:38:56;;;;;;;8.80;7.70;;;;;;;;;;5071295;28;20747;-86
2023/09/10 00:41:25;;;;;;;8.88;7.97;;;;;;;;;;5070813;28;20207;-85
2023/09/10 00:43:52;;;;;;;9.90;7.82;;;;;;;;;;5071190;28;20652;-84
2023/09/10 00:46:20;;;;;;;9.68;7.88;;;;;;;;;;5071443;28;20227;-85
2023/09/10 00:48:47;;;;;;;9.60;7.40;;;;;;;;;;5071503;28;20229;-84
2023/09/10 00:51:15;;;;;;;8.63;7.68;;;;;;;;;;5071409;28;20806;-85
2023/09/10 00:53:42;;;;;;;8.15;7.35;;;;;;;;;;5071539;28;20230;-85
2023/09/10 00:56:10;;;;;;;8.75;7.95;;;;;;;;;;5086657;28;20253;-85
2023/09/10 00:58:39;;;;;;;8.35;7.55;;;;;;;;;;5071413;28;20257;-85
2023/09/10 01:01:06;;;;;;;8.15;6.68;;;;;;;;;;5071409;28;20332;-85
2023/09/10 01:03:36;;;;;;;9.75;7.60;;;;;;;;;;5071425;28;20227;-85
2023/09/10 01:06:03;;;;;;;8.02;7.22;;;;;;;;;;5071779;28;20238;-85
2023/09/10 01:08:31;;;;;;;7.85;7.05;;;;;;;;;;5071397;28;20285;-85
2023/09/10 01:11:03;;;;;;;9.32;7.00;;;;;;;;;;5070775;28;20195;-85
2023/09/10 01:13:35;;;;;;;8.30;7.05;;;;;;;;;;5071374;28;20285;-85
2023/09/10 01:16:08;;;;;;;7.25;6.55;;;;;;;;;;5071138;28;20290;-84
2023/09/10 01:18:39;;;;;;;7.82;7.00;;;;;;;;;;5071439;28;20227;-84
2023/09/10 01:21:18;;;;;;;8.00;7.07;;;;;;;;;;5071229;28;20191;-85
2023/09/10 01:23:51;;;;;;;8.25;7.45;;;;;;;;;;5069356;28;20683;-85
2023/09/10 01:26:20;;;;;;;9.27;7.15;;;;;;;;;;5071059;28;20212;-85
2023/09/10 01:28:48;;;;;;;8.38;7.40;;;;;;;;;;5074670;28;20222;-85
2023/09/10 01:31:15;;;;;;;7.28;6.60;;;;;;;;;;5074654;28;20668;-85
2023/09/10 01:33:46;;;;;;;7.80;6.85;;;;;;;;;;5075422;28;20264;-85
2023/09/10 01:36:15;;;;;;;7.78;6.97;;;;;;;;;;5074482;28;20203;-84
2023/09/10 01:38:45;;;;;;;9.70;7.20;;;;;;;;;;5074888;28;20321;-85
2023/09/10 01:41:14;;;;;;;7.35;6.65;;;;;;;;;;5075126;28;20219;-85
2023/09/10 01:43:43;;;;;;;8.65;7.07;;;;;;;;;;5074872;28;20598;-83
2023/09/10 01:46:11;;;;;;;7.60;6.82;;;;;;;;;;5074588;28;20639;-85
2023/09/10 01:48:38;;;;;;;9.68;6.53;;;;;;;;;;5074284;28;20297;-84
2023/09/10 01:51:05;;;;;;;7.68;6.97;;;;;;;;;;5074414;28;20314;-85
2023/09/10 01:53:33;;;;;;;10.25;6.80;;;;;;;;;;5074498;28;20294;-85
2023/09/10 01:56:00;;;;;;;8.13;6.35;;;;;;;;;;5074530;28;20287;-85
2023/09/10 01:58:27;;;;;;;10.82;6.40;;;;;;;;;;5074586;28;20320;-85
2023/09/10 02:00:56;;;;;;;7.65;6.95;;;;;;;;;;5074005;28;20202;-84
2023/09/10 02:03:23;;;;;;;8.77;6.38;;;;;;;;;;5074562;28;20234;-84
2023/09/10 02:05:50;;;;;;;7.93;7.22;;;;;;;;;;5074366;28;20210;-85
2023/09/10 02:08:17;;;;;;;7.68;6.60;;;;;;;;;;5073605;28;20659;-84
2023/09/10 02:10:45;;;;;;;8.13;7.00;;;;;;;;;;5074088;28;20206;-84
2023/09/10 02:13:12;;;;;;;9.85;7.57;;;;;;;;;;5074233;28;20199;-83
2023/09/10 02:15:39;;;;;;;9.38;8.48;;;;;;;;;;5074147;28;20286;-85
2023/09/10 02:18:08;;;;;;;8.45;7.40;;;;;;;;;;5073809;28;20587;-84
2023/09/10 02:20:36;;;;;;;12.02;8.35;;;;;;;;;;5070497;28;20210;-84
2023/09/10 02:23:04;;;;;;;8.85;7.80;;;;;;;;;;5063430;28;20203;-85
2023/09/10 02:25:32;;;;;;;10.02;7.38;;;;;;;;;;5073746;28;20230;-84
2023/09/10 02:28:00;;;;;;;11.35;8.98;;;;;;;;;;5073760;28;20667;-84
2023/09/10 02:30:27;;;;;;;9.25;8.27;;;;;;;;;;5073991;28;20214;-84
2023/09/10 02:32:55;;;;;;;10.27;8.15;;;;;;;;;;5073986;28;20223;-84
2023/09/10 02:35:24;;;;;;;9.55;8.23;;;;;;;;;;5073553;28;20206;-84
2023/09/10 02:37:51;;;;;;;9.90;8.30;;;;;;;;;;5073213;28;20195;-85
2023/09/10 02:40:18;;;;;;;10.50;7.80;;;;;;;;;;5073155;28;20326;-84
2023/09/10 02:42:45;;;;;;;9.32;8.45;;;;;;;;;;5073959;28;20195;-85
2023/09/10 02:45:13;;;;;;;11.18;7.85;;;;;;;;;;5073631;28;20286;-85
2023/09/10 02:47:40;;;;;;;9.07;7.93;;;;;;;;;;5074068;28;20279;-85
2023/09/10 02:50:08;;;;;;;9.40;8.40;;;;;;;;;;5073037;28;20330;-84
2023/09/10 02:52:37;;;;;;;8.93;7.80;;;;;;;;;;5073482;28;20266;-84
2023/09/10 02:55:05;;;;;;;9.25;7.93;;;;;;;;;;5073863;28;20270;-85
2023/09/10 02:57:32;;;;;;;10.00;8.35;;;;;;;;;;5072996;28;20199;-84
2023/09/10 02:59:59;;;;;;;11.48;8.02;;;;;;;;;;5073371;28;20318;-85
2023/09/10 03:02:26;;;;;;;8.95;8.00;;;;;;;;;;5073163;28;20655;-85
2023/09/10 03:04:54;;;;;;;9.43;8.45;;;;;;;;;;5073082;28;20195;-85
2023/09/10 03:07:21;;;;;;;9.50;8.50;;;;;;;;;;5073379;28;20195;-84
2023/09/10 03:09:51;;;;;;;12.73;9.52;;;;;;;;;;5072972;28;20711;-85
2023/09/10 03:12:21;;;;;;;9.88;8.63;;;;;;;;;;5072800;28;20202;-86
2023/09/10 03:14:49;;;;;;;9.75;8.77;;;;;;;;;;5072925;28;20233;-84
2023/09/10 03:17:16;;;;;;;9.85;8.82;;;;;;;;;;5072844;28;20202;-84
2023/09/10 03:19:44;;;;;;;9.40;8.43;;;;;;;;;;5072162;28;20262;-84
2023/09/10 03:22:11;;;;;;;9.70;8.50;;;;;;;;;;5073071;28;20206;-84
2023/09/10 03:24:39;;;;;;;10.60;8.88;;;;;;;;;;5072938;28;20298;-84
2023/09/10 03:27:07;;;;;;;11.68;9.20;;;;;;;;;;5072713;28;20203;-85
2023/09/10 03:29:36;;;;;;;9.55;7.93;;;;;;;;;;5072986;28;20286;-85
2023/09/10 03:32:03;;;;;;;9.98;8.68;;;;;;;;;;5073108;28;20283;-85
2023/09/10 03:34:31;;;;;;;8.90;8.00;;;;;;;;;;5071981;28;20567;-85
2023/09/10 03:36:58;;;;;;;8.63;7.72;;;;;;;;;;5072666;28;20199;-86
2023/09/10 03:39:26;;;;;;;9.65;8.23;;;;;;;;;;5072649;28;20311;-85
2023/09/10 03:41:53;;;;;;;8.88;8.05;;;;;;;;;;5072683;28;20760;-84
2023/09/10 03:44:22;;;;;;;10.50;7.90;;;;;;;;;;5078940;28;20233;-85
2023/09/10 03:46:49;;;;;;;8.68;7.88;;;;;;;;;;5092679;28;20293;-84
2023/09/10 03:49:16;;;;;;;8.88;7.95;;;;;;;;;;5092332;28;20311;-85
2023/09/10 03:51:44;;;;;;;10.65;8.13;;;;;;;;;;5091973;28;20281;-84
2023/09/10 03:54:12;;;;;;;8.82;8.00;;;;;;;;;;5092856;28;20195;-84
2023/09/10 03:56:39;;;;;;;9.32;7.47;;;;;;;;;;5092529;28;20198;-83
2023/09/10 03:59:07;;;;;;;9.07;8.15;;;;;;;;;;5092474;28;20279;-85
2023/09/10 04:01:36;;;;;;;10.10;7.85;;;;;;;;;;5091960;28;20728;-85
2023/09/10 04:04:04;;;;;;;10.10;8.18;;;;;;;;;;5092144;28;20280;-84
2023/09/10 04:06:31;;;;;;;9.60;8.70;;;;;;;;;;5092828;28;20281;-85
2023/09/10 04:08:59;;;;;;;11.10;7.93;;;;;;;;;;5092022;28;20296;-85
2023/09/10 04:11:26;;;;;;;8.88;7.97;;;;;;;;;;5091951;28;20639;-86
2023/09/10 04:13:53;;;;;;;12.77;8.02;;;;;;;;;;5092014;28;20218;-84
2023/09/10 04:16:20;;;;;;;8.70;7.90;;;;;;;;;;5092135;28;20221;-85
2023/09/10 04:18:51;;;;;;;9.32;8.35;;;;;;;;;;5073893;28;20253;-85
2023/09/10 04:21:18;;;;;;;9.65;8.30;;;;;;;;;;5071627;28;20203;-85
2023/09/10 04:23:45;;;;;;;9.90;8.80;;;;;;;;;;5072203;28;20277;-85
2023/09/10 04:26:13;;;;;;;9.73;8.73;;;;;;;;;;5071934;28;20277;-85
2023/09/10 04:28:40;;;;;;;9.35;8.35;;;;;;;;;;5071770;28;20199;-85
2023/09/10 04:31:08;;;;;;;10.73;8.45;;;;;;;;;;5079265;28;20667;-84
2023/09/10 04:33:35;;;;;;;9.18;8.35;;;;;;;;;;5091602;28;20205;-84
2023/09/10 04:36:04;;;;;;;9.85;8.85;;;;;;;;;;5091794;28;20217;-84
2023/09/10 04:38:31;;;;;;;10.07;8.85;;;;;;;;;;5091754;28;20230;-85
2023/09/10 04:40:59;;;;;;;8.98;8.07;;;;;;;;;;5091887;28;20277;-85
2023/09/10 04:43:26;;;;;;;9.23;8.23;;;;;;;;;;5091727;28;20651;-84
2023/09/10 04:45:54;;;;;;;8.68;7.72;;;;;;;;;;5091559;28;20233;-84
2023/09/10 04:48:21;;;;;;;9.73;8.68;;;;;;;;;;5091424;28;20282;-84
2023/09/10 04:50:48;;;;;;;9.15;8.20;;;;;;;;;;5091313;28;20258;-85
2023/09/10 04:53:18;;;;;;;11.70;7.90;;;;;;;;;;5091760;28;20214;-85
2023/09/10 04:55:45;;;;;;;8.95;8.05;;;;;;;;;;5091913;28;20289;-85
2023/09/10 04:58:12;;;;;;;9.40;8.40;;;;;;;;;;5091847;28;20256;-84
2023/09/10 05:00:40;;;;;;;10.02;8.10;;;;;;;;;;5091068;28;20320;-85
2023/09/10 05:03:08;;;;;;;8.85;7.90;;;;;;;;;;5091213;28;20198;-85
2023/09/10 05:05:35;;;;;;;10.15;8.45;;;;;;;;;;5091785;28;20197;-85
2023/09/10 05:08:02;;;;;;;9.60;8.60;;;;;;;;;;5091340;28;20275;-85
2023/09/10 05:10:31;;;;;;;9.25;8.02;;;;;;;;;;5091581;28;20226;-86
2023/09/10 05:12:59;;;;;;;9.25;8.32;;;;;;;;;;5091299;28;20686;-84
2023/09/10 05:15:26;;;;;;;9.45;8.25;;;;;;;;;;5091323;28;20251;-84
2023/09/10 05:17:53;;;;;;;13.85;7.65;;;;;;;;;;5081714;28;20238;-85
2023/09/10 05:20:20;;;;;;;11.40;8.57;;;;;;;;;;5070817;28;20666;-84
2023/09/10 05:22:47;;;;;;;10.10;8.73;;;;;;;;;;5071271;28;20290;-85
2023/09/10 05:25:15;;;;;;;12.45;9.00;;;;;;;;;;5070867;28;20735;-85
2023/09/10 05:27:44;;;;;;;10.48;8.32;;;;;;;;;;5071353;28;20203;-84
2023/09/10 05:30:11;;;;;;;12.20;8.73;;;;;;;;;;5070146;28;20230;-84
2023/09/10 05:32:39;;;;;;;9.90;8.70;;;;;;;;;;5071052;28;20199;-84
2023/09/10 05:35:06;;;;;;;10.38;8.80;;;;;;;;;;5071150;28;20226;-85
2023/09/10 05:37:33;;;;;;;9.77;8.77;;;;;;;;;;5070937;28;20244;-85
2023/09/10 05:40:00;;;;;;;10.73;8.60;;;;;;;;;;5070998;28;20225;-85
2023/09/10 05:42:27;;;;;;;10.30;8.40;;;;;;;;;;5070717;28;20230;-85
2023/09/10 05:44:56;;;;;;;11.90;9.13;;;;;;;;;;5070753;28;20306;-86
2023/09/10 05:47:23;;;;;;;10.55;9.45;;;;;;;;;;5070691;28;20287;-84
2023/09/10 05:49:53;;;;;;;11.50;9.18;;;;;;;;;;5070383;28;20276;-84
2023/09/10 05:52:20;;;;;;;13.40;9.35;;;;;;;;;;5071037;28;20660;-85
2023/09/10 05:54:47;;;;;;;9.45;8.55;;;;;;;;;;5070800;28;20643;-83
2023/09/10 05:57:14;;;;;;;12.02;8.98;;;;;;;;;;5070748;28;20276;-85
2023/09/10 05:59:41;;;;;;;10.05;9.13;;;;;;;;;;5070082;28;20257;-85
2023/09/10 06:02:10;;;;;;;10.40;8.75;;;;;;;;;;5070633;28;20278;-85
2023/09/10 06:04:37;;;;;;;10.82;9.35;;;;;;;;;;5070687;28;20235;-85
2023/09/10 06:07:07;;;;;;;10.73;9.65;;;;;;;;;;5070810;28;20303;-84
2023/09/10 06:09:34;;;;;;;11.20;9.45;;;;;;;;;;5071001;28;20293;-84
2023/09/10 06:12:02;;;;;;;10.88;9.48;;;;;;;;;;5070357;28;20195;-84
2023/09/10 06:14:33;;;;;;;10.20;9.20;;;;;;;;;;5071445;28;20210;-85
2023/09/10 06:17:01;;;;;;;9.57;8.60;;;;;;;;;;5076418;28;20644;-84
2023/09/10 06:19:29;;;;;;;15.20;9.50;;;;;;;;;;5093843;28;20237;-84
2023/09/10 06:21:56;;;;;;;9.63;8.70;;;;;;;;;;5094269;28;20218;-84
2023/09/10 06:24:24;;;;;;;10.93;8.35;;;;;;;;;;5094180;28;20293;-84
2023/09/10 06:26:51;;;;;;;10.77;8.75;;;;;;;;;;5094021;28;20285;-85
2023/09/10 06:29:19;;;;;;;9.55;8.55;;;;;;;;;;5092873;28;20724;-85
2023/09/10 06:31:46;;;;;;;10.77;8.55;;;;;;;;;;5093902;28;20241;-85
2023/09/10 06:34:13;;;;;;;9.38;8.45;;;;;;;;;;5094079;28;20286;-84
2023/09/10 06:36:42;;;;;;;10.60;8.98;;;;;;;;;;5093664;28;20282;-84
2023/09/10 06:39:09;;;;;;;9.75;8.13;;;;;;;;;;5094114;28;20237;-85
2023/09/10 06:41:36;;;;;;;10.35;8.68;;;;;;;;;;5093367;28;20230;-84
2023/09/10 06:44:04;;;;;;;11.38;8.85;;;;;;;;;;5093782;28;20277;-85
2023/09/10 06:46:31;;;;;;;9.52;8.63;;;;;;;;;;5094146;28;20200;-84
2023/09/10 06:48:58;;;;;;;10.40;9.30;;;;;;;;;;5093979;28;20387;-85
2023/09/10 06:51:27;;;;;;;13.82;9.07;;;;;;;;;;5093552;28;20236;-83
2023/09/10 06:53:56;;;;;;;9.98;8.95;;;;;;;;;;5093628;28;20663;-85
2023/09/10 06:56:25;;;;;;;9.88;8.88;;;;;;;;;;5093898;28;20302;-85
2023/09/10 06:58:52;;;;;;;10.40;9.00;;;;;;;;;;5093575;28;20190;-85
2023/09/10 07:01:21;;;;;;;10.15;9.02;;;;;;;;;;5093669;28;20226;-85
2023/09/10 07:03:48;;;;;;;10.60;9.30;;;;;;;;;;5093856;28;20261;-85
2023/09/10 07:06:16;;;;;;;10.77;9.45;;;;;;;;;;5093451;28;20202;-84
2023/09/10 07:08:43;;;;;;;12.30;9.68;;;;;;;;;;5093882;28;20267;-85
2023/09/10 07:11:12;;;;;;;10.70;9.70;;;;;;;;;;5093119;28;20686;-84
2023/09/10 07:13:39;;;;;;;11.35;10.15;;;;;;;;;;5093246;28;20238;-85
2023/09/10 07:16:06;;;;;;;11.85;10.65;;;;;;;;;;5092944;28;20222;-84
2023/09/10 07:18:33;;;;;;;12.15;10.50;;;;;;;;;;5077650;28;20286;-84
2023/09/10 07:21:01;;;;;;;11.10;10.00;;;;;;;;;;5072850;28;20234;-85
2023/09/10 07:23:28;;;;;;;11.38;10.27;;;;;;;;;;5072990;28;20223;-84
2023/09/10 07:25:56;;;;;;;11.70;10.50;;;;;;;;;;5072458;28;20195;-85
2023/09/10 07:28:24;;;;;;;11.38;9.63;;;;;;;;;;5072943;28;20301;-85
2023/09/10 07:30:52;;;;;;;11.25;9.20;;;;;;;;;;5072833;28;20226;-89
2023/09/10 07:33:19;;;;;;;9.55;8.65;;;;;;;;;;5072849;28;20277;-85
2023/09/10 07:35:46;;;;;;;10.48;8.88;;;;;;;;;;5072785;28;20289;-85
2023/09/10 07:38:13;;;;;;;10.38;9.20;;;;;;;;;;5072621;28;20290;-86
2023/09/10 07:40:40;;;;;;;10.60;8.95;;;;;;;;;;5072429;28;20318;-86
2023/09/10 07:43:08;;;;;;;11.57;9.65;;;;;;;;;;5072473;28;20238;-86
2023/09/10 07:45:36;;;;;;;10.55;9.45;;;;;;;;;;5072105;28;20278;-86
2023/09/10 07:48:04;;;;;;;10.43;8.52;;;;;;;;;;5072695;28;20226;-85
2023/09/10 07:50:31;;;;;;;10.32;8.90;;;;;;;;;;5072205;28;20949;-84
2023/09/10 07:52:58;;;;;;;10.23;9.32;;;;;;;;;;5072351;28;20195;-84
2023/09/10 07:55:26;;;;;;;9.98;9.00;;;;;;;;;;5071859;28;20199;-84
2023/09/10 07:57:53;;;;;;;10.10;9.20;;;;;;;;;;5072121;28;20235;-85
2023/09/10 08:00:21;;;;;;;10.07;8.43;;;;;;;;;;5072136;28;20226;-85
2023/09/10 08:02:50;;;;;;;8.98;7.93;;;;;;;;;;5072176;28;20548;-85
2023/09/10 08:05:17;;;;;;;9.52;8.57;;;;;;;;;;5066047;28;20227;-85
2023/09/10 08:07:45;;;;;;;8.00;6.95;;;;;;;;;;5055643;28;20294;-86
2023/09/10 08:10:12;;;;;;;8.25;7.45;;;;;;;;;;5053367;28;20755;-86
2023/09/10 08:12:39;;;;;;;8.25;7.45;;;;;;;;;;5052289;28;20220;-87
2023/09/10 08:15:07;;;;;;;7.95;7.15;;;;;;;;;;5052142;28;20203;-86
2023/09/10 08:17:35;;;;;;;10.35;7.50;;;;;;;;;;5058092;28;20587;-86
2023/09/10 08:20:06;;;;;;;10.88;7.80;;;;;;;;;;5052301;28;20207;-88
2023/09/10 08:22:34;;;;;;;9.88;8.05;;;;;;;;;;5059712;28;20237;-87
2023/09/10 08:25:04;;;;;;;8.95;7.95;;;;;;;;;;5060700;28;20196;-87
2023/09/10 08:27:31;;;;;;;8.57;7.82;;;;;;;;;;5067276;28;20197;-89
2023/09/10 08:29:58;;;;;;;10.13;8.07;;;;;;;;;;5074061;28;20641;-87
2023/09/10 08:32:26;;;;;;;9.00;7.82;;;;;;;;;;5063663;28;20245;-85
2023/09/10 08:34:53;;;;;;;7.65;6.95;;;;;;;;;;5065394;28;20204;-87
2023/09/10 08:37:21;;;;;;;8.75;6.72;;;;;;;;;;5071277;28;20286;-86
2023/09/10 08:39:49;;;;;;;7.47;6.78;;;;;;;;;;5076599;28;20202;-84
2023/09/10 08:42:20;;;;;;;8.02;7.18;;;;;;;;;;5057590;28;20226;-85
2023/09/10 08:44:51;;;;;;;6.65;6.03;;;;;;;;;;5070437;28;20675;-84
2023/09/10 08:47:19;;;;;;;7.15;6.35;;;;;;;;;;5090135;28;20198;-84
2023/09/10 08:49:48;;;;;;;7.15;5.93;;;;;;;;;;5087567;28;20246;-83
2023/09/10 08:52:15;;;;;;;8.20;5.80;;;;;;;;;;5091281;28;20245;-86
2023/09/10 08:54:44;;;;;;;7.47;5.80;;;;;;;;;;5060391;28;20194;-84
2023/09/10 08:57:12;;;;;;;7.80;5.90;;;;;;;;;;5062767;28;20286;-84
2023/09/10 08:59:39;;;;;;;8.27;5.95;;;;;;;;;;5072052;28;20194;-83
2023/09/10 09:02:09;;;;;;;7.45;6.68;;;;;;;;;;5066629;28;20254;-82
2023/09/10 09:04:36;;;;;;;8.02;6.65;;;;;;;;;;5065823;28;20244;-84
2023/09/10 09:07:04;;;;;;;8.38;6.90;;;;;;;;;;5065274;28;20759;-83
2023/09/10 09:09:32;;;;;;;7.18;6.43;;;;;;;;;;5065132;28;20196;-84
2023/09/10 09:12:01;;;;;;;7.32;6.65;;;;;;;;;;5069241;28;20203;-83
2023/09/10 09:14:28;;;;;;;10.27;6.68;;;;;;;;;;5068608;28;20302;-82
2023/09/10 09:16:57;;;;;;;9.38;7.35;;;;;;;;;;5063823;28;20293;-85
2023/09/10 09:19:25;;;;;;;10.00;6.90;;;;;;;;;;5064932;28;20964;-83
2023/09/10 09:21:53;;;;;;;8.32;6.88;;;;;;;;;;5082997;28;20331;-83
2023/09/10 09:24:22;;;;;;;7.10;6.35;;;;;;;;;;5069249;28;20242;-82
2023/09/10 09:26:50;;;;;;;8.02;6.50;;;;;;;;;;5066495;28;20211;-83
2023/09/10 09:29:19;;;;;;;7.38;6.68;;;;;;;;;;5071190;28;20244;-83
2023/09/10 09:31:46;;;;;;;8.07;6.72;;;;;;;;;;5045942;28;20203;-85
2023/09/10 09:34:13;;;;;;;8.07;6.70;;;;;;;;;;5062210;28;20572;-83
2023/09/10 09:36:42;;;;;;;8.57;6.63;;;;;;;;;;5063867;28;20290;-84
2023/09/10 09:39:11;;;;;;;8.93;6.75;;;;;;;;;;5066761;28;20203;-84
2023/09/10 09:41:39;;;;;;;11.65;6.80;;;;;;;;;;5070595;28;20249;-84
2023/09/10 09:44:06;;;;;;;7.82;6.35;;;;;;;;;;5065862;28;20303;-84
2023/09/10 09:46:35;;;;;;;9.95;6.47;;;;;;;;;;5084296;28;21034;-84
2023/09/10 09:49:03;;;;;;;8.15;6.68;;;;;;;;;;5080888;28;20298;-85
2023/09/10 09:51:30;;;;;;;7.90;6.20;;;;;;;;;;5072820;28;20321;-84
2023/09/10 09:53:57;;;;;;;8.60;6.82;;;;;;;;;;5076176;28;20716;-83
2023/09/10 09:56:25;;;;;;;7.95;6.40;;;;;;;;;;5070358;28;20286;-84
2023/09/10 09:58:52;;;;;;;9.50;7.55;;;;;;;;;;5078146;28;20222;-87
2023/09/10 10:01:22;;;;;;;10.35;7.95;;;;;;;;;;5068257;28;20306;-85
2023/09/10 10:03:50;;;;;;;12.00;9.68;;;;;;;;;;5068553;28;20195;-85
2023/09/10 10:06:18;;;;;;;11.95;9.75;;;;;;;;;;5070633;28;20624;-84
2023/09/10 10:08:49;;;;;;;11.10;9.95;;;;;;;;;;5074021;28;20202;-86
2023/09/10 10:11:17;;;;;;;11.88;9.38;;;;;;;;;;5077085;28;20679;-84
2023/09/10 10:13:45;;;;;;;13.35;10.40;;;;;;;;;;5072420;28;20293;-86
2023/09/10 10:16:12;;;;;;;9.40;8.50;;;;;;;;;;5082149;28;20202;-86
2023/09/10 10:18:40;;;;;;;10.73;9.65;;;;;;;;;;5085988;28;20234;-86
2023/09/10 10:21:09;;;;;;;11.50;8.82;;;;;;;;;;5094029;28;20268;-86
2023/09/10 10:23:37;;;;;;;13.00;10.00;;;;;;;;;;5072696;28;20250;-84
2023/09/10 10:26:05;;;;;;;10.35;9.35;;;;;;;;;;5055372;28;20207;-85
2023/09/10 10:28:34;;;;;;;12.25;8.93;;;;;;;;;;5055614;28;20656;-84
2023/09/10 10:31:04;;;;;;;11.90;10.02;;;;;;;;;;5053816;28;20227;-85
2023/09/10 10:33:32;;;;;;;12.73;9.93;;;;;;;;;;5054203;28;20211;-85
2023/09/10 10:36:07;;;;;;;10.63;9.55;;;;;;;;;;5070802;28;20666;-85
2023/09/10 10:38:36;;;;;;;10.40;9.23;;;;;;;;;;5061453;28;20210;-85
2023/09/10 10:41:13;;;;;;;14.82;9.73;;;;;;;;;;5055834;28;20231;-84
2023/09/10 10:43:42;;;;;;;12.18;9.40;;;;;;;;;;5058043;28;20559;-85
2023/09/10 10:46:10;;;;;;;12.75;10.15;;;;;;;;;;5070775;28;20669;-86
2023/09/10 10:48:40;;;;;;;13.02;10.57;;;;;;;;;;5053499;28;20290;-86
2023/09/10 10:51:09;;;;;;;12.05;10.70;;;;;;;;;;5053234;28;20234;-82
2023/09/10 10:53:39;;;;;;;16.83;12.25;;;;;;;;;;5054173;28;20223;-83
2023/09/10 10:56:06;;;;;;;19.58;13.57;;;;;;;;;;5052827;28;20235;-83
2023/09/10 10:58:34;;;;;;;11.70;9.13;;;;;;;;;;5053096;28;20220;-84
2023/09/10 11:01:03;;;;;;;10.70;9.38;;;;;;;;;;5051923;28;20303;-84
2023/09/10 11:03:30;;;;;;;11.60;8.98;;;;;;;;;;5052471;28;20631;-84
2023/09/10 11:06:05;;;;;;;9.30;8.27;;;;;;;;;;5053511;28;20202;-82
2023/09/10 11:08:33;;;;;;;11.10;8.20;;;;;;;;;;5052570;28;20230;-83
2023/09/10 11:11:03;;;;;;;9.32;7.35;;;;;;;;;;5055058;28;20287;-83
2023/09/10 11:13:31;;;;;;;7.60;6.70;;;;;;;;;;5052705;28;20278;-84
2023/09/10 11:16:17;;;;;;;7.82;5.13;;;;;;;;;;5052854;28;20192;-83
2023/09/10 11:18:44;;;;;;;7.60;5.30;;;;;;;;;;5061552;28;20290;-82
2023/09/10 11:21:12;;;;;;;7.65;5.15;;;;;;;;;;5052096;28;20250;-83
2023/09/10 11:23:39;;;;;;;6.18;5.38;;;;;;;;;;5052819;28;20653;-85
2023/09/10 11:26:25;;;;;;;7.13;4.80;;;;;;;;;;5052200;28;20243;-82
2023/09/10 11:28:55;;;;;;;6.53;5.32;;;;;;;;;;5052118;28;20229;-82
2023/09/10 11:31:36;;;;;;;7.05;6.07;;;;;;;;;;5052065;28;20837;-81
2023/09/10 11:34:19;;;;;;;5.07;4.65;;;;;;;;;;5061922;28;20207;-85
2023/09/10 11:36:47;;;;;;;4.93;4.30;;;;;;;;;;5088170;28;20202;-83
2023/09/10 11:39:15;;;;;;;6.30;4.68;;;;;;;;;;5067308;28;20199;-83
2023/09/10 11:41:46;;;;;;;17.00;14.10;;;;;;;;;;5063221;28;20253;-84
2023/09/10 11:44:14;;;;;;;11.40;9.65;;;;;;;;;;5067197;28;20199;-84
2023/09/10 11:46:42;;;;;;;5.65;4.88;;;;;;;;;;5066381;28;20191;-84
2023/09/10 11:49:09;;;;;;;7.20;4.53;;;;;;;;;;5060779;28;20792;-84
2023/09/10 11:51:42;;;;;;;6.07;5.25;;;;;;;;;;5063535;28;20321;-85
2023/09/10 11:54:09;;;;;;;7.97;4.60;;;;;;;;;;5060796;28;20260;-82
2023/09/10 11:56:36;;;;;;;6.93;4.20;;;;;;;;;;5061654;28;20199;-82
2023/09/10 11:59:04;;;;;;;4.60;4.13;;;;;;;;;;5086976;28;20225;-83
2023/09/10 12:01:34;;;;;;;5.90;4.38;;;;;;;;;;5071704;28;20717;-84
2023/09/10 12:04:02;;;;;;;6.07;4.38;;;;;;;;;;5076450;28;20285;-85
2023/09/10 12:06:29;;;;;;;7.35;4.65;;;;;;;;;;5070840;28;20206;-85
2023/09/10 12:08:57;;;;;;;5.82;4.13;;;;;;;;;;5051936;28;20199;-86
2023/09/10 12:11:24;;;;;;;4.93;4.00;;;;;;;;;;5051226;28;20668;-84
2023/09/10 12:13:52;;;;;;;5.10;3.90;;;;;;;;;;5051845;28;20285;-85
2023/09/10 12:16:19;;;;;;;4.82;4.13;;;;;;;;;;5059594;28;20194;-84
2023/09/10 12:18:50;;;;;;;6.15;4.53;;;;;;;;;;5081024;28;20204;-84
2023/09/10 12:21:18;;;;;;;6.28;4.07;;;;;;;;;;5091731;28;20198;-85
2023/09/10 12:23:46;;;;;;;8.07;4.47;;;;;;;;;;5072443;28;20204;-85
2023/09/10 12:26:13;;;;;;;4.97;4.05;;;;;;;;;;5069247;28;20851;-84
2023/09/10 12:28:41;;;;;;;6.70;4.13;;;;;;;;;;5071309;28;20274;-83
2023/09/10 12:31:08;;;;;;;5.18;4.18;;;;;;;;;;5071104;28;20198;-83
2023/09/10 12:33:36;;;;;;;6.50;4.53;;;;;;;;;;5064186;28;20199;-83
2023/09/10 12:36:05;;;;;;;7.13;4.25;;;;;;;;;;5056531;28;20286;-84
2023/09/10 12:38:32;;;;;;;5.82;4.72;;;;;;;;;;5052718;28;20196;-84
2023/09/10 12:40:59;;;;;;;6.95;4.50;;;;;;;;;;5057809;28;20211;-85
2023/09/10 12:43:27;;;;;;;5.15;4.55;;;;;;;;;;5050847;28;20337;-83
2023/09/10 12:45:54;;;;;;;5.05;4.05;;;;;;;;;;5051217;28;20203;-83
2023/09/10 12:48:21;;;;;;;6.78;5.70;;;;;;;;;;5050899;28;20201;-83
2023/09/10 12:50:49;;;;;;;6.88;4.60;;;;;;;;;;5043761;28;20341;-84
2023/09/10 12:53:18;;;;;;;7.20;5.07;;;;;;;;;;5063131;28;20736;-84
2023/09/10 12:55:46;;;;;;;6.72;4.65;;;;;;;;;;5070945;28;20415;-83
2023/09/10 12:58:13;;;;;;;6.43;4.55;;;;;;;;;;5077821;28;20777;-83
2023/09/10 13:00:41;;;;;;;7.18;4.75;;;;;;;;;;5064554;28;20660;-83
2023/09/10 13:03:08;;;;;;;6.00;4.28;;;;;;;;;;5065628;28;20222;-84
2023/09/10 13:05:36;;;;;;;6.53;4.28;;;;;;;;;;5066097;28;20723;-83
2023/09/10 13:08:03;;;;;;;6.20;4.18;;;;;;;;;;5067739;28;20203;-83
2023/09/10 13:10:32;;;;;;;8.75;4.75;;;;;;;;;;5081725;28;20229;-83
2023/09/10 13:12:59;;;;;;;5.25;4.15;;;;;;;;;;5077934;28;20292;-84
2023/09/10 13:15:26;;;;;;;7.25;4.50;;;;;;;;;;5086152;28;20204;-84
2023/09/10 13:17:53;;;;;;;5.97;4.47;;;;;;;;;;5081053;28;20675;-84
2023/09/10 13:20:23;;;;;;;6.65;4.47;;;;;;;;;;5070816;28;20230;-84
2023/09/10 13:22:50;;;;;;;7.97;4.28;;;;;;;;;;5068741;28;20227;-84
2023/09/10 13:25:17;;;;;;;5.30;4.00;;;;;;;;;;5074383;28;20228;-85
2023/09/10 13:27:46;;;;;;;6.72;4.32;;;;;;;;;;5091557;28;20229;-83
2023/09/10 13:30:13;;;;;;;4.45;3.95;;;;;;;;;;5080296;28;20229;-84
2023/09/10 13:32:41;;;;;;;5.18;3.83;;;;;;;;;;5085216;28;20668;-82
2023/09/10 13:35:08;;;;;;;5.68;4.35;;;;;;;;;;5087525;28;20625;-83
2023/09/10 13:37:37;;;;;;;7.03;4.28;;;;;;;;;;5070828;28;20234;-82
2023/09/10 13:40:04;;;;;;;5.10;4.28;;;;;;;;;;5065999;28;20203;-84
2023/09/10 13:42:32;;;;;;;6.10;4.18;;;;;;;;;;5079608;28;20230;-83
2023/09/10 13:45:00;;;;;;;6.60;4.18;;;;;;;;;;5085298;28;20631;-83
2023/09/10 13:47:29;;;;;;;6.75;4.25;;;;;;;;;;5078466;28;20226;-82
2023/09/10 13:49:56;;;;;;;8.15;4.15;;;;;;;;;;5073335;28;20275;-84
2023/09/10 13:52:23;;;;;;;4.95;3.78;;;;;;;;;;5080248;28;20210;-85
2023/09/10 13:54:51;;;;;;;6.20;4.38;;;;;;;;;;5083630;28;20241;-84
2023/09/10 13:57:18;;;;;;;4.28;3.67;;;;;;;;;;5088942;28;20198;-84
2023/09/10 13:59:45;;;;;;;7.25;4.20;;;;;;;;;;5071591;28;20200;-83
2023/09/10 14:02:14;;;;;;;7.57;4.00;;;;;;;;;;5073377;28;20313;-83
2023/09/10 14:04:42;;;;;;;5.18;4.20;;;;;;;;;;5084322;28;20277;-83
2023/09/10 14:07:09;;;;;;;7.07;3.97;;;;;;;;;;5087852;28;20222;-84
2023/09/10 14:09:36;;;;;;;9.35;4.95;;;;;;;;;;5077128;28;20222;-84
2023/09/10 14:12:04;;;;;;;5.70;4.05;;;;;;;;;;5088337;28;20211;-83
2023/09/10 14:14:31;;;;;;;6.70;4.35;;;;;;;;;;5072298;28;20222;-82
2023/09/10 14:16:58;;;;;;;10.02;4.35;;;;;;;;;;5083000;28;20213;-82
2023/09/10 14:19:27;;;;;;;6.75;4.20;;;;;;;;;;5088217;28;20294;-82
2023/09/10 14:21:54;;;;;;;6.20;4.00;;;;;;;;;;5073923;28;20204;-83
2023/09/10 14:24:22;;;;;;;5.68;4.28;;;;;;;;;;5086538;28;20199;-84
2023/09/10 14:26:49;;;;;;;6.35;4.13;;;;;;;;;;5067182;28;20571;-84
2023/09/10 14:29:16;;;;;;;4.55;4.10;;;;;;;;;;5079127;28;20199;-84
2023/09/10 14:31:44;;;;;;;4.78;4.32;;;;;;;;;;5085345;28;20227;-85
2023/09/10 14:34:11;;;;;;;6.97;4.57;;;;;;;;;;5085361;28;20234;-82
2023/09/10 14:36:39;;;;;;;5.65;4.60;;;;;;;;;;5076681;28;20282;-84
2023/09/10 14:39:07;;;;;;;7.45;4.38;;;;;;;;;;5086880;28;20743;-83
2023/09/10 14:41:34;;;;;;;6.32;4.72;;;;;;;;;;5070415;28;20199;-82
2023/09/10 14:44:01;;;;;;;5.18;4.10;;;;;;;;;;5081515;28;20628;-84